Terminal Aerodrome Forecast
Issued by NWS Sterling, VA

Home | Current Version | Previous Version | Text Only | Print | Product List | Glossary On
Versions: 1 2 3 4 5 6 7 8 9 10 11 12 13 14 15 16 17 18 19 20
000
FTUS41 KLWX 040542 RRA
TAFMRB
TAF
KMRB 040542Z 0406/0506 14004KT 3SM SHRA BR OVC025
     FM040700 13004KT 2SM SHRA BR OVC015
     FM041000 11004KT 2SM -SHRA BR OVC008
     FM041400 12006KT 5SM -SHRA OVC015
     FM041600 12005KT P6SM SHRA VCTS OVC015CB
     FM041900 00000KT P6SM OVC025
     FM042300 00000KT P6SM BKN050
     FM050200 VRB03KT 5SM BR BKN050=

USA.gov is the U.S. government's official web portal to all federal, state and local government web resources and services.